Time;durP1;ratioP1;P1;durP2;ratioP2;P2;SDS_P1;SDS_P2;PMS_P1;PMS_P2;Temp;Humidity;BMP_temperature;BMP_pressure;BME280_temperature;BME280_humidity;BME280_pressure;Samples;Min_cycle;Max_cycle;Signal;HPM_P1;HPM_P2
2022/08/27 00:02:19;;;;;;;8.18;2.80;;;;;;;17.02;85.21;101613.09;4787557;30;20054;-61
2022/08/27 00:04:45;;;;;;;6.15;2.58;;;;;;;17.02;85.01;101610.47;4787296;30;20053;-62
2022/08/27 00:07:11;;;;;;;5.03;2.50;;;;;;;16.97;85.54;101612.34;4787232;30;20566;-60
2022/08/27 00:09:38;;;;;;;4.70;2.38;;;;;;;16.99;85.61;101612.31;4787376;30;20043;-59
2022/08/27 00:12:04;;;;;;;6.60;2.75;;;;;;;16.89;85.42;101613.50;4787255;30;20051;-61
2022/08/27 00:14:29;;;;;;;7.80;2.83;;;;;;;16.88;86.32;101604.69;4787499;30;20043;-62
2022/08/27 00:16:56;;;;;;;6.30;2.70;;;;;;;16.78;85.55;101607.63;4787308;30;20041;-63
2022/08/27 00:19:21;;;;;;;8.13;2.95;;;;;;;16.77;86.25;101605.91;4786962;30;20031;-62
2022/08/27 00:21:47;;;;;;;9.43;3.20;;;;;;;16.75;86.66;101613.88;4787208;30;20373;-60
2022/08/27 00:24:12;;;;;;;5.47;2.70;;;;;;;16.74;87.21;101600.69;4787244;30;20039;-63
2022/08/27 00:26:39;;;;;;;6.28;2.80;;;;;;;16.74;87.39;101603.31;4787098;30;20042;-61
2022/08/27 00:29:05;;;;;;;6.25;2.60;;;;;;;16.72;87.79;101606.00;4787048;30;20035;-61
2022/08/27 00:31:30;;;;;;;5.70;3.20;;;;;;;16.70;87.59;101602.53;4787017;30;20050;-60
2022/08/27 00:33:56;;;;;;;8.45;2.83;;;;;;;16.69;87.69;101592.88;4787117;30;20031;-61
2022/08/27 00:36:22;;;;;;;5.57;2.50;;;;;;;16.67;88.21;101598.19;4787066;30;20081;-62
2022/08/27 00:38:48;;;;;;;4.70;2.85;;;;;;;16.58;88.16;101594.91;4786961;30;20075;-62
2022/08/27 00:41:14;;;;;;;4.63;2.80;;;;;;;16.58;88.30;101600.19;4786909;30;20422;-61
2022/08/27 00:43:56;;;;;;;7.25;2.53;;;;;;;16.42;87.96;101583.00;4786944;30;20043;-62
2022/08/27 00:46:38;;;;;;;5.15;2.80;;;;;;;16.48;89.06;101602.19;4786913;30;20182;-60
2022/08/27 00:49:26;;;;;;;8.07;2.90;;;;;;;16.52;88.65;101600.34;4786610;30;20038;-63
2022/08/27 00:51:56;;;;;;;6.78;2.95;;;;;;;16.47;89.34;101604.88;4786894;30;20039;-62
2022/08/27 00:54:24;;;;;;;7.93;3.22;;;;;;;16.42;88.77;101604.13;4786402;30;20066;-63
2022/08/27 00:56:50;;;;;;;5.80;2.95;;;;;;;16.41;89.21;101602.41;4786978;30;20039;-61
2022/08/27 00:59:16;;;;;;;4.80;3.13;;;;;;;16.35;89.41;101593.72;4786801;30;20062;-62
2022/08/27 01:04:31;;;;;;;5.82;3.30;;;;;;;16.28;90.07;101602.69;4786828;30;20058;-61
2022/08/27 01:06:58;;;;;;;5.65;3.30;;;;;;;16.29;89.90;101601.78;4786793;30;20357;-61
2022/08/27 01:09:25;;;;;;;5.45;3.17;;;;;;;16.24;89.29;101600.19;4786822;30;20420;-63
2022/08/27 01:11:51;;;;;;;6.75;3.10;;;;;;;16.21;89.89;101595.84;4786522;30;20110;-62
2022/08/27 01:14:17;;;;;;;6.10;3.28;;;;;;;16.23;90.11;101595.81;4786572;30;20115;-63
2022/08/27 01:16:48;;;;;;;8.60;3.25;;;;;;;16.19;90.55;101600.28;4786338;30;20392;-63
2022/08/27 01:19:31;;;;;;;6.35;3.47;;;;;;;16.14;90.07;101588.97;4786610;30;20138;-63
2022/08/27 01:22:06;;;;;;;9.68;3.55;;;;;;;16.15;90.05;101590.69;4786365;30;20035;-61
2022/08/27 01:24:41;;;;;;;8.35;3.42;;;;;;;16.15;90.05;101590.69;4786465;30;20058;-61
2022/08/27 01:27:09;;;;;;;6.43;3.50;;;;;;;16.11;90.68;101588.16;4786362;30;20343;-62
2022/08/27 01:29:35;;;;;;;7.63;3.30;;;;;;;16.00;91.03;101594.59;4786452;30;20523;-60
2022/08/27 01:32:12;;;;;;;6.45;3.78;;;;;;;16.02;90.90;101592.78;4786486;30;20765;-60
2022/08/27 01:34:37;;;;;;;6.25;3.60;;;;;;;15.97;91.36;101585.88;4786424;30;20069;-63
2022/08/27 01:37:05;;;;;;;7.28;3.60;;;;;;;15.95;91.55;101595.59;4786323;30;20043;-63
2022/08/27 01:39:32;;;;;;;6.72;3.13;;;;;;;15.94;91.89;101585.94;4786344;30;20131;-62
2022/08/27 01:42:10;;;;;;;6.40;3.47;;;;;;;15.95;91.76;101593.81;4786348;30;20046;-64
2022/08/27 01:44:55;;;;;;;5.68;3.25;;;;;;;15.96;91.51;101592.03;4786290;30;20461;-61
2022/08/27 01:47:23;;;;;;;9.02;3.65;;;;;;;15.96;91.68;101594.69;4785980;30;20039;-62
2022/08/27 01:49:49;;;;;;;6.45;3.17;;;;;;;15.95;92.01;101592.94;4786277;30;20051;-61
2022/08/27 01:52:18;;;;;;;8.30;3.80;;;;;;;15.86;92.03;101588.75;4786283;30;20043;-62
2022/08/27 01:54:43;;;;;;;8.65;4.25;;;;;;;15.83;92.12;101586.19;4786142;30;20093;-63
2022/08/27 01:57:09;;;;;;;5.93;3.30;;;;;;;15.84;92.53;101582.66;4786284;30;20070;-63
2022/08/27 01:59:34;;;;;;;6.88;3.33;;;;;;;15.83;92.05;101583.56;4786359;30;20071;-63
2022/08/27 02:02:01;;;;;;;5.93;4.00;;;;;;;15.74;92.81;101585.56;4786426;30;20055;-62
2022/08/27 02:04:27;;;;;;;7.25;3.67;;;;;;;15.68;93.11;101577.75;4786206;29;20142;-60
2022/08/27 02:06:53;;;;;;;5.30;3.55;;;;;;;15.68;93.14;101588.31;4789130;30;20500;-61
2022/08/27 02:09:18;;;;;;;7.03;3.38;;;;;;;15.61;93.26;101577.88;4789672;30;20131;-62
2022/08/27 02:11:43;;;;;;;6.38;3.47;;;;;;;15.60;93.54;101584.06;4789720;30;20070;-62
2022/08/27 02:14:09;;;;;;;6.22;3.47;;;;;;;15.58;93.70;101580.63;4789468;30;20054;-62
2022/08/27 02:16:35;;;;;;;7.25;3.80;;;;;;;15.52;94.00;101575.44;4789330;30;20050;-62
2022/08/27 02:19:01;;;;;;;6.03;3.70;;;;;;;15.49;94.06;101577.25;4789080;30;20747;-61
2022/08/27 02:21:27;;;;;;;6.47;3.70;;;;;;;15.46;94.40;101572.91;4789472;30;20046;-62
2022/08/27 02:23:53;;;;;;;11.57;4.05;;;;;;;15.48;94.33;101575.53;4789433;30;20046;-62
2022/08/27 02:26:19;;;;;;;8.02;4.00;;;;;;;15.34;95.06;101567.91;4789372;30;20069;-62
2022/08/27 02:28:44;;;;;;;7.22;3.95;;;;;;;15.36;95.06;101559.97;4789425;30;20449;-62
2022/08/27 02:31:09;;;;;;;10.13;4.68;;;;;;;15.38;95.09;101569.59;4788765;30;20059;-60
2022/08/27 02:33:35;;;;;;;8.35;4.45;;;;;;;15.32;95.10;101565.31;4789508;30;20035;-62
2022/08/27 02:36:00;;;;;;;6.80;4.25;;;;;;;15.28;95.24;101552.22;4789239;30;20204;-64
2022/08/27 02:38:26;;;;;;;9.57;4.07;;;;;;;15.30;95.40;101563.59;4789101;30;20039;-62
2022/08/27 02:40:51;;;;;;;8.15;4.47;;;;;;;15.30;95.38;101559.19;4789116;30;20123;-62
2022/08/27 02:43:17;;;;;;;7.88;4.75;;;;;;;15.28;95.22;101560.13;4789142;30;20051;-63
2022/08/27 02:45:42;;;;;;;8.82;4.43;;;;;;;15.31;95.20;101567.97;4789004;30;20047;-61
2022/08/27 02:48:07;;;;;;;10.73;4.65;;;;;;;15.30;95.45;101560.97;4788790;30;20039;-63
2022/08/27 02:50:34;;;;;;;9.40;4.45;;;;;;;15.20;95.61;101562.06;4788946;30;20070;-62
2022/08/27 02:53:01;;;;;;;6.45;4.30;;;;;;;15.21;95.80;101566.44;4788706;30;20067;-61
2022/08/27 02:55:27;;;;;;;10.02;4.70;;;;;;;15.24;96.27;101566.34;4788861;30;20078;-60
2022/08/27 02:57:52;;;;;;;8.00;4.82;;;;;;;15.26;96.12;101562.78;4788751;30;20067;-63
2022/08/27 03:00:19;;;;;;;10.65;5.25;;;;;;;15.30;95.98;101566.25;4788584;30;20481;-61
2022/08/27 03:02:45;;;;;;;9.60;5.07;;;;;;;15.30;96.02;101567.13;4788663;30;20050;-61
2022/08/27 03:05:12;;;;;;;8.43;5.28;;;;;;;15.36;96.16;101570.53;4788249;30;20044;-62
2022/08/27 03:07:37;;;;;;;8.82;4.93;;;;;;;15.37;95.94;101577.53;4788505;30;20043;-63
2022/08/27 03:10:04;;;;;;;9.40;5.25;;;;;;;15.45;95.79;101575.59;4789035;30;20054;-62
2022/08/27 03:12:30;;;;;;;9.25;5.28;;;;;;;15.42;96.01;101565.97;4788303;30;20116;-62
2022/08/27 03:14:56;;;;;;;8.98;5.30;;;;;;;15.42;95.84;101562.47;4788292;30;20050;-63
2022/08/27 03:20:07;;;;;;;9.70;6.07;;;;;;;15.42;95.91;101567.75;4788256;30;20058;-62
2022/08/27 03:22:33;;;;;;;8.95;5.30;;;;;;;15.42;95.43;101565.97;4788461;30;20035;-60
2022/08/27 03:25:00;;;;;;;11.20;6.05;;;;;;;15.47;95.54;101571.16;4788370;30;20047;-59
2022/08/27 03:27:26;;;;;;;10.63;5.20;;;;;;;15.35;95.68;101545.94;4787940;30;20130;-63
2022/08/27 03:29:51;;;;;;;10.52;5.50;;;;;;;15.45;95.01;101563.28;4788120;30;20047;-61
2022/08/27 03:32:17;;;;;;;9.98;5.45;;;;;;;15.42;95.06;101571.25;4787965;30;20351;-59
2022/08/27 03:34:42;;;;;;;7.75;5.07;;;;;;;15.42;95.57;101571.25;4788199;30;20066;-59
2022/08/27 03:37:07;;;;;;;11.45;5.32;;;;;;;15.40;95.68;101561.66;4788105;30;20104;-58
2022/08/27 03:39:32;;;;;;;8.63;5.80;;;;;;;15.23;95.75;101543.56;4788129;30;20353;-58
2022/08/27 03:41:58;;;;;;;11.95;5.65;;;;;;;15.29;96.03;101564.50;4787950;30;20047;-60
2022/08/27 03:44:23;;;;;;;11.10;6.10;;;;;;;15.22;95.93;101574.34;4787913;30;20043;-62
2022/08/27 03:46:51;;;;;;;9.05;5.45;;;;;;;15.25;96.24;101574.25;4771680;30;20039;-60
2022/08/27 03:49:19;;;;;;;8.88;6.07;;;;;;;15.26;96.33;101575.97;4787439;30;20511;-59
2022/08/27 03:51:45;;;;;;;8.32;5.80;;;;;;;15.25;96.56;101570.75;4787883;30;20039;-59
2022/08/27 03:54:10;;;;;;;11.75;5.68;;;;;;;15.31;96.50;101581.16;4787389;30;20537;-60
2022/08/27 03:56:38;;;;;;;9.40;5.82;;;;;;;15.31;96.47;101579.41;4787634;30;20043;-62
2022/08/27 03:59:04;;;;;;;9.75;6.32;;;;;;;15.36;96.73;101573.16;4787664;30;20129;-60
2022/08/27 04:01:30;;;;;;;9.38;5.68;;;;;;;15.30;96.72;101561.84;4787377;30;20516;-62
2022/08/27 04:03:56;;;;;;;9.68;5.82;;;;;;;15.41;96.41;101574.78;4787555;30;20180;-61
2022/08/27 04:06:21;;;;;;;9.20;6.40;;;;;;;15.27;96.37;101553.13;4787030;30;20107;-60
2022/08/27 04:08:46;;;;;;;12.63;5.80;;;;;;;15.42;96.20;101571.25;4787366;30;20441;-59
2022/08/27 04:11:12;;;;;;;11.32;6.00;;;;;;;15.41;96.32;101576.59;4787427;30;20039;-60
2022/08/27 04:13:37;;;;;;;9.15;6.13;;;;;;;15.40;96.11;101566.94;4787327;30;20086;-59
2022/08/27 04:16:04;;;;;;;10.43;6.65;;;;;;;15.33;96.56;101571.47;4787319;30;20039;-60
2022/08/27 04:18:29;;;;;;;11.52;6.93;;;;;;;15.28;96.25;101570.69;4787493;30;20442;-59
2022/08/27 04:20:55;;;;;;;11.90;6.28;;;;;;;15.24;97.05;101566.34;4787312;30;20138;-62
2022/08/27 04:23:21;;;;;;;8.98;6.38;;;;;;;15.17;97.23;101562.13;4787342;30;20062;-62
2022/08/27 04:25:46;;;;;;;10.40;6.22;;;;;;;15.17;97.36;101570.03;4787223;30;20039;-60
2022/08/27 04:28:13;;;;;;;9.25;6.15;;;;;;;15.09;97.07;101569.31;4786588;29;20055;-59
2022/08/27 04:30:45;;;;;;;8.65;5.93;;;;;;;15.06;97.47;101572.03;4787047;30;20057;-62
2022/08/27 04:33:12;;;;;;;10.60;6.68;;;;;;;15.06;97.55;101570.28;4787206;30;20031;-60
2022/08/27 04:35:38;;;;;;;8.52;6.30;;;;;;;15.02;97.78;101567.72;4787231;30;20043;-62
2022/08/27 04:38:03;;;;;;;10.98;6.47;;;;;;;14.95;98.15;101574.88;4786578;30;20361;-61
2022/08/27 04:41:18;;;;;;;10.68;6.15;;;;;;;14.92;98.29;101574.94;4786994;30;20032;-61
2022/08/27 04:43:15;;;;;;;9.85;6.50;;;;;;;14.88;98.60;101565.38;4786519;30;20047;-62
2022/08/27 04:45:45;;;;;;;11.00;6.93;;;;;;;15.02;97.91;101583.53;4787062;30;20039;-61
2022/08/27 04:48:12;;;;;;;10.63;6.28;;;;;;;15.07;98.17;101592.19;4786807;30;20118;-61
2022/08/27 04:50:48;;;;;;;8.10;6.38;;;;;;;15.15;98.28;101585.03;4786758;30;20130;-60
2022/08/27 04:53:15;;;;;;;10.02;6.35;;;;;;;15.22;98.53;101590.16;4786660;30;20115;-63
2022/08/27 04:55:45;;;;;;;9.77;6.43;;;;;;;15.28;97.56;101584.72;4786840;30;20046;-61
2022/08/27 04:58:11;;;;;;;12.27;5.97;;;;;;;15.33;97.54;101579.38;4786852;30;20068;-61
2022/08/27 05:00:45;;;;;;;9.45;6.63;;;;;;;15.34;97.58;101583.75;4786726;30;20047;-59
2022/08/27 05:03:11;;;;;;;9.20;6.30;;;;;;;15.31;97.50;101573.25;4786692;30;20050;-62
2022/08/27 05:05:36;;;;;;;10.70;6.47;;;;;;;15.39;97.64;101581.88;4786997;30;20043;-61
2022/08/27 05:08:05;;;;;;;9.68;6.60;;;;;;;15.39;97.74;101591.56;4786523;30;20473;-60
2022/08/27 05:10:30;;;;;;;8.38;6.60;;;;;;;15.43;97.92;101578.25;4786584;30;20063;-60
2022/08/27 05:12:56;;;;;;;10.52;6.30;;;;;;;15.44;97.58;101580.00;4786606;30;20070;-59
2022/08/27 05:15:21;;;;;;;13.35;6.63;;;;;;;15.51;97.40;101592.16;4786619;30;20075;-64
2022/08/27 05:17:47;;;;;;;10.38;7.03;;;;;;;15.52;97.57;101582.47;4786065;30;20078;-64
2022/08/27 05:20:12;;;;;;;13.43;7.40;;;;;;;15.55;97.26;101579.78;4786511;30;20043;-61
2022/08/27 05:22:38;;;;;;;13.93;7.68;;;;;;;15.59;97.42;101584.09;4786190;30;20039;-59
2022/08/27 05:25:05;;;;;;;12.68;7.15;;;;;;;15.66;96.84;101583.06;4786539;30;20054;-61
2022/08/27 05:27:30;;;;;;;12.52;7.55;;;;;;;15.57;96.56;101568.34;4786445;30;20057;-60
2022/08/27 05:29:56;;;;;;;10.98;7.22;;;;;;;15.77;96.80;101582.81;4786506;30;20441;-59
2022/08/27 05:32:22;;;;;;;12.43;7.47;;;;;;;15.80;96.19;101582.75;4786251;30;20429;-61
2022/08/27 05:34:47;;;;;;;13.60;7.68;;;;;;;15.79;95.61;101586.28;4786587;30;20126;-60
2022/08/27 05:37:12;;;;;;;13.07;7.80;;;;;;;15.87;95.99;101584.34;4786517;30;20035;-65
2022/08/27 05:39:37;;;;;;;11.73;7.57;;;;;;;16.01;95.28;101592.81;4786353;29;20039;-61
2022/08/27 05:42:03;;;;;;;9.55;6.82;;;;;;;16.10;94.75;101592.59;4790110;30;20043;-61
2022/08/27 05:44:29;;;;;;;12.98;7.63;;;;;;;16.14;94.13;101582.81;4790180;30;20118;-60
2022/08/27 05:46:54;;;;;;;10.85;7.38;;;;;;;16.16;94.02;101589.78;4789881;30;20365;-61
2022/08/27 05:49:19;;;;;;;12.85;7.82;;;;;;;16.21;94.64;101592.34;4789913;30;20050;-60
2022/08/27 05:51:44;;;;;;;12.30;7.38;;;;;;;16.26;94.82;101593.09;4789767;30;20453;-63
2022/08/27 05:54:17;;;;;;;12.57;7.75;;;;;;;16.32;94.26;101600.84;4789617;30;20066;-61
2022/08/27 05:56:42;;;;;;;12.48;7.13;;;;;;;16.32;93.96;101585.00;4789817;30;20035;-62
2022/08/27 06:01:54;;;;;;;9.40;7.80;;;;;;;16.36;94.34;101592.81;4789972;30;20112;-61
2022/08/27 06:04:21;;;;;;;13.52;7.57;;;;;;;16.39;94.05;101597.16;4789624;30;20122;-61
2022/08/27 06:06:48;;;;;;;14.43;7.28;;;;;;;16.45;93.63;101599.63;4789543;30;20050;-60
2022/08/27 06:09:18;;;;;;;9.52;7.00;;;;;;;16.46;93.51;101598.72;4789506;30;20043;-59
2022/08/27 06:11:45;;;;;;;12.20;6.93;;;;;;;16.39;93.29;101599.78;4789656;30;20054;-62
2022/08/27 06:14:11;;;;;;;11.63;7.43;;;;;;;16.40;93.61;101609.47;4789379;30;20040;-60
2022/08/27 06:16:38;;;;;;;10.27;6.80;;;;;;;16.46;93.63;101609.28;4789401;30;20043;-61
2022/08/27 06:19:04;;;;;;;9.98;6.70;;;;;;;16.49;93.80;101611.84;4789429;30;20362;-66
2022/08/27 06:21:30;;;;;;;12.73;6.40;;;;;;;16.58;93.05;101611.63;4789389;30;20039;-62
2022/08/27 06:23:56;;;;;;;11.70;6.57;;;;;;;16.68;93.76;101609.63;4789421;30;20456;-60
2022/08/27 06:26:24;;;;;;;12.18;7.25;;;;;;;16.71;92.69;101612.19;4789271;30;20035;-60
2022/08/27 06:28:49;;;;;;;10.13;6.38;;;;;;;16.72;92.77;101618.34;4789156;30;20039;-63
2022/08/27 06:31:24;;;;;;;9.82;7.07;;;;;;;16.81;92.39;101613.69;4789138;30;20047;-62
2022/08/27 06:33:51;;;;;;;9.27;6.65;;;;;;;16.81;92.31;101612.81;4789091;30;20038;-62
2022/08/27 06:36:20;;;;;;;9.98;6.72;;;;;;;16.78;92.45;101608.50;4788894;30;20131;-62
2022/08/27 06:38:46;;;;;;;11.23;6.95;;;;;;;16.82;92.07;101614.56;4789174;30;20050;-60
2022/08/27 06:41:13;;;;;;;11.75;6.90;;;;;;;16.87;92.43;101610.00;4789149;30;20039;-59
2022/08/27 06:43:40;;;;;;;12.85;6.88;;;;;;;16.81;91.26;101603.09;4789156;30;20039;-62
2022/08/27 06:46:09;;;;;;;10.60;7.10;;;;;;;16.92;91.91;101619.56;4788833;30;20138;-62
2022/08/27 06:48:34;;;;;;;12.05;7.07;;;;;;;17.03;91.19;101613.97;4788805;30;20097;-59
2022/08/27 06:51:07;;;;;;;11.70;6.82;;;;;;;17.04;90.47;101610.41;4788416;29;20067;-63
2022/08/27 06:53:32;;;;;;;14.23;7.30;;;;;;;17.04;90.81;101610.41;4788660;30;20132;-60
2022/08/27 06:55:58;;;;;;;9.77;6.30;;;;;;;17.04;90.27;101611.28;4788717;30;20035;-61
2022/08/27 06:58:23;;;;;;;10.68;6.80;;;;;;;16.95;90.20;101590.41;4788680;30;20304;-60
2022/08/27 07:00:50;;;;;;;10.48;7.20;;;;;;;17.10;90.23;101610.25;4788412;30;20035;-62
2022/08/27 07:03:15;;;;;;;10.77;6.55;;;;;;;17.15;90.34;101612.75;4788762;30;20046;-60
2022/08/27 07:05:40;;;;;;;10.07;6.05;;;;;;;17.19;89.91;101601.19;4788728;30;20047;-63
2022/08/27 07:08:07;;;;;;;11.48;6.13;;;;;;;17.16;90.18;101610.06;4788501;30;20043;-61
2022/08/27 07:10:33;;;;;;;10.50;5.45;;;;;;;17.13;89.17;101612.81;4788487;30;20039;-61
2022/08/27 07:12:59;;;;;;;11.02;5.40;;;;;;;17.18;89.99;101617.97;4788153;30;20359;-62
2022/08/27 07:15:25;;;;;;;8.05;4.93;;;;;;;17.28;89.07;101611.50;4788480;30;20051;-61
2022/08/27 07:17:51;;;;;;;12.48;5.63;;;;;;;17.39;88.54;101617.34;4788488;30;20074;-59
2022/08/27 07:20:18;;;;;;;7.28;5.40;;;;;;;17.50;88.28;101620.53;4788464;30;20528;-61
2022/08/27 07:22:44;;;;;;;9.48;5.15;;;;;;;17.53;88.42;101617.81;4788313;30;20050;-62
2022/08/27 07:25:14;;;;;;;9.20;5.32;;;;;;;17.64;87.15;101623.69;4788243;30;20054;-61
2022/08/27 07:27:40;;;;;;;9.07;5.45;;;;;;;17.69;86.78;101618.25;4788054;30;20381;-61
2022/08/27 07:30:09;;;;;;;6.78;5.38;;;;;;;17.73;86.92;101620.75;4788213;30;20125;-62
2022/08/27 07:32:34;;;;;;;9.75;4.97;;;;;;;17.82;85.86;101616.09;4788157;30;20559;-62
2022/08/27 07:34:59;;;;;;;10.38;5.15;;;;;;;17.90;86.43;101629.94;4788131;30;20039;-60
2022/08/27 07:37:25;;;;;;;8.70;5.30;;;;;;;17.96;85.08;101622.69;4788343;30;20361;-63
2022/08/27 07:39:50;;;;;;;9.90;5.03;;;;;;;18.05;84.75;101619.75;4788088;30;20043;-62
2022/08/27 07:45:00;;;;;;;7.88;5.28;;;;;;;18.02;83.58;101629.56;4788098;30;20196;-60
2022/08/27 07:47:25;;;;;;;9.20;4.80;;;;;;;18.10;84.25;101622.25;4787952;30;20043;-60
2022/08/27 07:49:51;;;;;;;8.27;5.03;;;;;;;18.14;83.94;101633.63;4788072;30;20112;-60
2022/08/27 07:52:16;;;;;;;9.63;5.55;;;;;;;18.13;83.35;101631.88;4787877;30;20512;-61
2022/08/27 07:54:41;;;;;;;9.18;5.60;;;;;;;18.08;84.14;101626.72;4787646;30;20051;-61
2022/08/27 07:57:08;;;;;;;14.50;5.90;;;;;;;18.14;83.36;101634.50;4787667;30;20059;-61
2022/08/27 07:59:34;;;;;;;8.93;5.97;;;;;;;18.19;82.90;101629.03;4787699;30;20039;-63
2022/08/27 08:01:59;;;;;;;10.27;5.95;;;;;;;18.36;82.92;101629.34;4787501;29;20047;-60
2022/08/27 08:04:25;;;;;;;9.85;5.63;;;;;;;18.41;81.42;101630.06;4786699;30;20311;-60
2022/08/27 08:06:51;;;;;;;7.18;5.18;;;;;;;18.41;80.98;101628.28;4787460;30;20077;-63
2022/08/27 08:09:17;;;;;;;6.72;5.07;;;;;;;18.56;80.62;101631.31;4787502;30;20378;-59
2022/08/27 08:11:42;;;;;;;12.50;4.85;;;;;;;18.61;80.40;101634.72;4787459;30;20392;-62
2022/08/27 08:14:07;;;;;;;9.10;4.57;;;;;;;18.57;80.00;101628.63;4787355;30;20047;-60
2022/08/27 08:16:32;;;;;;;9.25;4.30;;;;;;;18.48;78.56;101631.59;4787393;30;20280;-62
2022/08/27 08:18:59;;;;;;;8.63;4.22;;;;;;;18.32;79.24;101631.25;4787602;30;20404;-60
2022/08/27 08:21:24;;;;;;;6.75;4.28;;;;;;;18.19;79.59;101629.03;4786787;30;20074;-60
2022/08/27 08:23:50;;;;;;;9.65;4.70;;;;;;;18.09;80.22;101631.97;4787225;30;20159;-60
2022/08/27 08:26:15;;;;;;;9.73;4.63;;;;;;;18.11;80.36;101631.94;4787263;30;20180;-63
2022/08/27 08:28:41;;;;;;;7.80;4.68;;;;;;;18.11;79.70;101634.59;4787282;30;20134;-60
2022/08/27 08:31:06;;;;;;;8.43;4.80;;;;;;;18.14;78.35;101639.78;4787144;30;20196;-63
2022/08/27 08:33:33;;;;;;;6.82;4.38;;;;;;;18.13;78.32;101638.06;4787249;30;20138;-62
2022/08/27 08:36:16;;;;;;;7.22;4.30;;;;;;;18.15;78.48;101635.34;4786956;30;20381;-62
2022/08/27 08:38:44;;;;;;;9.68;4.47;;;;;;;18.17;78.71;101644.13;4787018;30;20043;-60
2022/08/27 08:41:49;;;;;;;9.73;4.45;;;;;;;18.27;79.08;101649.06;4787293;30;20108;-61
2022/08/27 08:44:44;;;;;;;10.30;4.82;;;;;;;18.32;77.29;101644.50;4787154;30;20053;-63
2022/08/27 08:47:18;;;;;;;7.50;4.78;;;;;;;18.38;77.50;101644.28;4786420;30;20639;-60
2022/08/27 08:49:56;;;;;;;7.72;4.30;;;;;;;18.44;77.05;101641.44;4786968;30;20476;-61
2022/08/27 08:52:46;;;;;;;7.22;4.00;;;;;;;18.56;76.73;101641.91;4786946;30;20054;-60
2022/08/27 08:55:40;;;;;;;5.95;4.07;;;;;;;18.53;75.27;101642.06;4786811;30;20059;-62
2022/08/27 08:58:38;;;;;;;8.05;3.60;;;;;;;18.68;74.90;101637.13;4786617;30;20086;-61
2022/08/27 09:01:06;;;;;;;5.65;3.63;;;;;;;19.28;71.76;101642.94;4761274;30;20047;-59
2022/08/27 09:03:35;;;;;;;8.38;4.00;;;;;;;20.27;69.24;101633.78;4786731;30;20038;-60
2022/08/27 09:06:13;;;;;;;5.30;2.95;;;;;;;20.75;67.09;101629.13;4786867;30;20039;-62
2022/08/27 09:08:41;;;;;;;6.03;2.67;;;;;;;21.00;63.05;101636.00;4786712;30;20039;-62
2022/08/27 09:11:24;;;;;;;4.97;2.17;;;;;;;20.88;63.87;101642.75;4786695;30;20043;-60
2022/08/27 09:13:58;;;;;;;5.72;2.33;;;;;;;20.67;64.04;101636.53;4786381;29;20096;-64
2022/08/27 09:16:23;;;;;;;5.10;2.17;;;;;;;20.78;63.58;101636.94;4786862;30;20681;-60
2022/08/27 09:18:49;;;;;;;5.32;2.08;;;;;;;20.78;64.10;101644.09;4786636;30;20107;-60
2022/08/27 09:21:18;;;;;;;7.15;2.50;;;;;;;20.84;63.93;101649.13;4786661;30;20066;-61
2022/08/27 09:24:02;;;;;;;5.85;2.35;;;;;;;21.01;63.89;101646.59;4786560;30;20054;-59
2022/08/27 09:26:31;;;;;;;4.40;2.17;;;;;;;21.15;62.12;101644.19;4786459;30;20043;-61
2022/08/27 09:29:18;;;;;;;4.88;2.10;;;;;;;21.06;60.50;101638.41;4786424;30;20063;-61
2022/08/27 09:31:55;;;;;;;6.05;2.10;;;;;;;21.03;61.38;101636.75;4786613;30;20133;-61
2022/08/27 09:34:23;;;;;;;4.32;1.73;;;;;;;21.06;59.84;101641.94;4786515;30;20472;-62
2022/08/27 09:37:03;;;;;;;6.13;2.30;;;;;;;21.08;62.00;101632.09;4786397;30;20111;-60
2022/08/27 09:40:10;;;;;;;4.43;2.47;;;;;;;21.11;61.13;101642.59;4786396;30;20099;-61
2022/08/27 09:42:45;;;;;;;5.68;2.05;;;;;;;21.14;60.25;101639.78;4770167;30;20476;-61
2022/08/27 09:45:14;;;;;;;5.35;1.92;;;;;;;20.94;58.91;101647.81;4786231;30;20372;-62
2022/08/27 09:47:48;;;;;;;4.05;1.83;;;;;;;20.60;60.24;101651.06;4786200;30;20043;-64
2022/08/27 09:50:18;;;;;;;4.40;2.03;;;;;;;20.37;60.66;101641.38;4786224;30;20043;-61
2022/08/27 09:52:57;;;;;;;4.15;1.98;;;;;;;20.42;60.91;101644.72;4786351;30;20516;-62
2022/08/27 09:55:26;;;;;;;3.63;1.92;;;;;;;20.48;58.93;101648.88;4786245;30;20109;-60
2022/08/27 09:57:52;;;;;;;4.90;1.95;;;;;;;20.55;60.22;101642.41;4786111;30;20043;-62
2022/08/27 10:00:17;;;;;;;3.20;1.80;;;;;;;20.82;59.92;101649.19;4786150;30;20046;-62
2022/08/27 10:02:51;;;;;;;3.00;2.03;;;;;;;21.27;60.65;101645.47;4786316;30;20108;-62
2022/08/27 10:05:36;;;;;;;4.50;1.98;;;;;;;21.74;60.17;101645.09;4786109;30;20114;-60
2022/08/27 10:08:06;;;;;;;5.20;2.17;;;;;;;21.74;56.64;101642.41;4786085;30;20040;-62
2022/08/27 10:10:46;;;;;;;5.50;2.10;;;;;;;21.71;57.74;101642.56;4785796;30;20464;-60
2022/08/27 10:13:19;;;;;;;3.85;1.80;;;;;;;21.70;56.92;101638.16;4786178;30;20047;-60
2022/08/27 10:15:52;;;;;;;4.85;2.00;;;;;;;21.77;56.19;101643.13;4786309;30;20126;-60
2022/08/27 10:18:43;;;;;;;6.28;2.25;;;;;;;21.91;56.44;101642.47;4786040;30;20072;-63
2022/08/27 10:21:22;;;;;;;4.60;1.98;;;;;;;22.21;54.08;101632.16;4786069;30;20450;-61
2022/08/27 10:24:29;;;;;;;4.18;2.10;;;;;;;22.36;54.48;101636.72;4785913;30;20036;-61
2022/08/27 10:27:28;;;;;;;5.05;2.40;;;;;;;22.40;54.72;101640.97;4787703;29;20089;-62
2022/08/27 10:30:07;;;;;;;4.13;2.25;;;;;;;22.35;54.37;101631.47;4788648;30;20062;-61
2022/08/27 10:32:47;;;;;;;4.55;2.40;;;;;;;22.32;55.08;101631.63;4789369;30;20074;-61
2022/08/27 10:35:18;;;;;;;3.42;2.17;;;;;;;22.43;53.53;101626.63;4789285;30;20095;-62
2022/08/27 10:37:52;;;;;;;6.88;2.50;;;;;;;22.71;54.39;101626.06;4789146;30;20042;-61
2022/08/27 10:40:26;;;;;;;4.65;2.10;;;;;;;22.64;53.24;101628.22;4789248;30;20108;-65
2022/08/27 10:42:56;;;;;;;5.35;2.10;;;;;;;22.56;53.89;101623.25;4789083;30;20104;-60
2022/08/27 10:45:38;;;;;;;5.97;2.25;;;;;;;22.49;53.43;101627.19;4789000;30;20176;-63
2022/08/27 10:48:14;;;;;;;5.47;2.10;;;;;;;22.34;53.94;101633.25;4788997;30;20097;-60
2022/08/27 10:50:58;;;;;;;5.85;2.15;;;;;;;22.11;54.01;101628.22;4788985;30;20043;-62
2022/08/27 10:53:41;;;;;;;4.30;1.98;;;;;;;21.95;55.35;101627.22;4788885;30;20059;-59
2022/08/27 10:56:16;;;;;;;6.55;2.20;;;;;;;21.72;55.58;101613.19;4788724;30;20042;-61
2022/08/27 10:59:01;;;;;;;5.82;2.00;;;;;;;21.82;56.00;101618.91;4788881;30;20515;-60
2022/08/27 11:01:48;;;;;;;4.03;2.17;;;;;;;21.92;55.77;101627.34;4788945;30;20139;-61
2022/08/27 11:04:21;;;;;;;4.97;2.17;;;;;;;21.73;54.72;101624.69;4788755;30;20035;-62
2022/08/27 11:07:10;;;;;;;5.00;2.22;;;;;;;21.65;56.00;101627.72;4788615;30;20046;-61
2022/08/27 11:09:45;;;;;;;3.58;1.88;;;;;;;21.68;54.65;101622.25;4788720;30;20362;-61
2022/08/27 11:12:16;;;;;;;4.15;1.85;;;;;;;21.86;54.71;101632.03;4788724;30;20743;-60
2022/08/27 11:14:53;;;;;;;4.03;1.73;;;;;;;22.17;55.16;101626.09;4788239;30;20050;-61
2022/08/27 11:17:50;;;;;;;5.35;1.83;;;;;;;22.28;53.12;101625.59;4788329;30;20547;-61
2022/08/27 11:20:28;;;;;;;6.32;2.08;;;;;;;22.22;53.63;101624.06;4788428;30;20066;-60
2022/08/27 11:23:18;;;;;;;5.22;1.70;;;;;;;22.31;54.21;101619.25;4787728;30;20138;-59
2022/08/27 11:25:58;;;;;;;4.25;1.80;;;;;;;22.29;53.87;101627.31;4788307;30;20368;-63
2022/08/27 11:28:30;;;;;;;3.88;1.73;;;;;;;22.03;52.73;101617.06;4788268;30;20062;-61
2022/08/27 11:31:29;;;;;;;5.55;1.63;;;;;;;22.04;54.93;101624.13;4788337;30;20061;-61
2022/08/27 11:34:04;;;;;;;6.93;1.52;;;;;;;22.20;54.52;101617.09;4788175;30;20103;-62
2022/08/27 11:36:41;;;;;;;6.00;1.65;;;;;;;22.23;52.19;101616.94;4788146;30;20100;-63
2022/08/27 11:39:29;;;;;;;6.38;1.50;;;;;;;22.14;54.27;101609.41;4787208;30;20529;-62
2022/08/27 11:42:12;;;;;;;4.57;1.50;;;;;;;22.17;54.54;101610.09;4788105;30;20406;-63
2022/08/27 11:44:47;;;;;;;4.03;1.60;;;;;;;22.19;54.58;101612.69;4788048;30;20040;-63
2022/08/27 11:47:21;;;;;;;3.47;1.58;;;;;;;22.28;54.41;101609.59;4787553;30;20385;-63
2022/08/27 11:50:14;;;;;;;6.18;1.60;;;;;;;22.35;53.81;101611.00;4787845;30;20126;-61